createdAt,value
2023-02-28T00:01:28.080Z,6.72
2023-02-28T00:04:00.970Z,5.80
2023-02-28T00:06:33.366Z,5.00
2023-02-28T00:09:05.798Z,6.18
2023-02-28T00:11:38.216Z,5.05
2023-02-28T00:14:10.610Z,6.07
2023-02-28T00:16:43.726Z,5.38
2023-02-28T00:19:16.181Z,6.68
2023-02-28T00:21:48.629Z,6.00
2023-02-28T00:24:21.137Z,5.43
2023-02-28T00:26:53.622Z,5.43
2023-02-28T00:29:25.975Z,5.82
2023-02-28T00:31:59.010Z,5.65
2023-02-28T00:34:31.398Z,5.40
2023-02-28T00:37:04.301Z,4.85
2023-02-28T00:39:39.846Z,5.88
2023-02-28T00:42:12.303Z,6.40
2023-02-28T00:44:44.755Z,6.32
2023-02-28T00:47:18.618Z,5.82
2023-02-28T00:49:51.196Z,8.52
2023-02-28T00:52:23.602Z,7.15
2023-02-28T00:54:56.148Z,7.72
2023-02-28T00:57:28.595Z,5.55
2023-02-28T01:00:01.083Z,7.18
2023-02-28T01:02:34.365Z,5.45
2023-02-28T01:05:07.487Z,5.00
2023-02-28T01:07:39.869Z,4.43
2023-02-28T01:10:12.690Z,4.32
2023-02-28T01:12:45.085Z,4.72
2023-02-28T01:15:17.587Z,3.75
2023-02-28T01:17:51.782Z,4.95
2023-02-28T01:20:24.644Z,6.32
2023-02-28T01:22:57.085Z,5.60
2023-02-28T01:25:29.554Z,5.50
2023-02-28T01:28:02.010Z,5.97
2023-02-28T01:30:34.426Z,5.65
2023-02-28T01:33:07.729Z,6.80
2023-02-28T01:35:40.177Z,5.75
2023-02-28T01:38:21.624Z,6.82
2023-02-28T01:40:55.128Z,5.50
2023-02-28T01:43:29.430Z,6.20
2023-02-28T01:46:02.027Z,6.00
2023-02-28T01:48:39.303Z,5.50
2023-02-28T01:51:15.694Z,5.43
2023-02-28T01:53:52.061Z,5.65
2023-02-28T01:56:29.631Z,7.60
2023-02-28T01:59:02.983Z,6.68
2023-02-28T02:01:35.656Z,7.47
2023-02-28T02:04:08.814Z,8.68
2023-02-28T02:06:45.245Z,8.07
2023-02-28T02:09:17.621Z,8.00
2023-02-28T02:11:50.035Z,7.32
2023-02-28T02:14:41.260Z,7.03
2023-02-28T02:17:24.850Z,8.23
2023-02-28T02:20:49.016Z,8.43
2023-02-28T02:23:54.885Z,9.18
2023-02-28T02:26:49.353Z,8.13
2023-02-28T02:29:54.616Z,7.85
2023-02-28T02:32:50.237Z,8.63
2023-02-28T02:35:28.649Z,5.68
2023-02-28T02:38:10.289Z,6.25
2023-02-28T02:40:51.048Z,3.88
2023-02-28T02:43:29.879Z,5.45
2023-02-28T02:46:06.938Z,5.27
2023-02-28T02:48:43.081Z,3.50
2023-02-28T02:51:19.567Z,4.20
2023-02-28T02:53:55.609Z,6.22
2023-02-28T02:56:30.938Z,7.88
2023-02-28T02:59:06.514Z,5.72
2023-02-28T03:01:40.821Z,8.60
2023-02-28T03:04:19.587Z,13.07
2023-02-28T03:06:55.060Z,8.98
2023-02-28T03:09:28.089Z,7.00
2023-02-28T03:12:00.876Z,7.28
2023-02-28T03:14:46.917Z,6.28
2023-02-28T03:17:34.986Z,6.57
2023-02-28T03:20:17.857Z,4.95
2023-02-28T03:23:03.818Z,8.15
2023-02-28T03:25:44.140Z,7.80
2023-02-28T03:28:25.745Z,6.38
2023-02-28T03:31:03.854Z,6.97
2023-02-28T03:33:40.157Z,5.90
2023-02-28T03:36:16.509Z,5.53
2023-02-28T03:38:53.371Z,5.70
2023-02-28T03:41:32.114Z,6.43
2023-02-28T03:44:09.892Z,8.05
2023-02-28T03:46:48.052Z,7.78
2023-02-28T03:49:24.630Z,6.93
2023-02-28T03:51:59.945Z,6.78
2023-02-28T03:54:38.426Z,5.65
2023-02-28T03:57:14.826Z,5.82
2023-02-28T03:59:51.671Z,5.68
2023-02-28T04:02:24.747Z,5.53
2023-02-28T04:04:57.154Z,3.65
2023-02-28T04:07:30.354Z,3.83
2023-02-28T04:10:04.536Z,5.72
2023-02-28T04:12:36.938Z,5.55
2023-02-28T04:15:10.859Z,6.63
2023-02-28T04:17:43.176Z,5.82
2023-02-28T04:20:15.611Z,8.23
2023-02-28T04:22:48.100Z,6.18
2023-02-28T04:25:21.152Z,5.47
2023-02-28T04:27:55.050Z,6.07
2023-02-28T04:30:27.406Z,5.32
2023-02-28T04:33:00.395Z,6.47
2023-02-28T04:35:32.827Z,5.80
2023-02-28T04:38:05.173Z,5.57
2023-02-28T04:40:38.174Z,5.82
2023-02-28T04:43:10.494Z,6.65
2023-02-28T04:45:43.343Z,7.35
2023-02-28T04:48:15.762Z,7.25
2023-02-28T04:50:48.146Z,6.63
2023-02-28T04:53:20.829Z,6.07
2023-02-28T04:55:53.809Z,4.95
2023-02-28T04:58:26.381Z,6.55
2023-02-28T05:01:03.583Z,6.10
2023-02-28T05:03:35.965Z,7.90
2023-02-28T05:06:08.787Z,7.22
2023-02-28T05:08:41.380Z,7.03
2023-02-28T05:11:18.162Z,6.97
2023-02-28T05:13:51.346Z,6.35
2023-02-28T05:16:23.695Z,9.55
2023-02-28T05:18:56.036Z,7.18
2023-02-28T05:21:31.060Z,7.38
2023-02-28T05:24:05.691Z,6.90
2023-02-28T05:26:41.064Z,7.50
2023-02-28T05:29:13.324Z,7.13
2023-02-28T05:31:45.942Z,6.80
2023-02-28T05:34:18.324Z,6.80
2023-02-28T05:36:50.601Z,6.90
2023-02-28T05:39:22.943Z,6.05
2023-02-28T05:41:56.006Z,7.53
2023-02-28T05:44:28.413Z,7.18
2023-02-28T05:47:00.805Z,7.93
2023-02-28T05:49:33.098Z,7.80
2023-02-28T05:52:05.488Z,9.07
2023-02-28T05:54:37.873Z,7.80
2023-02-28T05:57:19.079Z,7.38
2023-02-28T05:59:56.435Z,7.57
2023-02-28T06:02:29.029Z,7.15
2023-02-28T06:05:01.751Z,6.32
2023-02-28T06:07:34.112Z,7.00
2023-02-28T06:10:07.588Z,6.10
2023-02-28T06:12:41.926Z,7.70
2023-02-28T06:15:15.403Z,10.02
2023-02-28T06:17:47.801Z,6.55
2023-02-28T06:20:20.269Z,7.60
2023-02-28T06:22:54.725Z,7.75
2023-02-28T06:25:27.968Z,7.50
2023-02-28T06:28:01.092Z,8.15
2023-02-28T06:30:34.049Z,8.25
2023-02-28T06:33:06.378Z,8.32
2023-02-28T06:35:38.931Z,7.47
2023-02-28T06:38:11.405Z,9.85
2023-02-28T06:40:44.110Z,8.98
2023-02-28T06:43:17.235Z,9.70
2023-02-28T06:45:49.668Z,7.80
2023-02-28T06:48:22.135Z,8.77
2023-02-28T06:51:02.452Z,5.75
2023-02-28T06:53:35.329Z,9.30
2023-02-28T06:56:10.536Z,7.70
2023-02-28T06:58:47.431Z,9.85
2023-02-28T07:01:20.608Z,8.98
2023-02-28T07:03:53.067Z,9.98
2023-02-28T07:06:25.453Z,10.80
2023-02-28T07:08:58.096Z,8.73
2023-02-28T07:11:30.725Z,10.40
2023-02-28T07:14:03.936Z,15.15
2023-02-28T07:16:36.657Z,12.38
2023-02-28T07:19:09.102Z,10.75
2023-02-28T07:21:41.507Z,13.50
2023-02-28T07:24:15.985Z,13.10
2023-02-28T07:26:48.319Z,15.60
2023-02-28T07:29:21.554Z,10.68
2023-02-28T07:31:54.266Z,12.93
2023-02-28T07:34:26.669Z,12.82
2023-02-28T07:36:58.974Z,15.98
2023-02-28T07:39:31.295Z,14.60
2023-02-28T07:42:05.316Z,15.32
2023-02-28T07:44:40.808Z,12.35
2023-02-28T07:47:13.208Z,15.98
2023-02-28T07:49:46.294Z,13.55
2023-02-28T07:52:18.626Z,17.45
2023-02-28T07:54:50.957Z,15.50
2023-02-28T07:57:23.200Z,16.80
2023-02-28T07:59:56.258Z,12.60
2023-02-28T08:02:28.574Z,10.98
2023-02-28T08:05:01.732Z,11.85
2023-02-28T08:07:34.196Z,10.77
2023-02-28T08:10:09.124Z,13.45
2023-02-28T08:12:41.418Z,12.68
2023-02-28T08:15:14.422Z,13.38
2023-02-28T08:17:46.817Z,14.77
2023-02-28T08:20:19.462Z,13.63
2023-02-28T08:22:51.811Z,10.77
2023-02-28T08:25:24.244Z,12.63
2023-02-28T08:27:56.595Z,9.48
2023-02-28T08:30:29.645Z,9.25
2023-02-28T08:33:02.411Z,11.32
2023-02-28T08:35:37.022Z,10.93
2023-02-28T08:38:09.404Z,11.10
2023-02-28T08:40:41.707Z,11.13
2023-02-28T08:43:14.116Z,10.63
2023-02-28T08:45:47.268Z,15.05
2023-02-28T08:48:19.756Z,11.95
2023-02-28T08:51:06.753Z,10.52
2023-02-28T08:53:40.956Z,10.05
2023-02-28T08:56:14.993Z,16.40
2023-02-28T08:58:49.925Z,10.80
2023-02-28T09:01:24.893Z,10.40
2023-02-28T09:03:58.567Z,14.80
2023-02-28T09:06:31.158Z,11.70
2023-02-28T09:09:06.315Z,12.00
2023-02-28T09:11:38.861Z,10.60
2023-02-28T09:14:11.218Z,12.43
2023-02-28T09:16:44.365Z,11.77
2023-02-28T09:19:16.773Z,11.38
2023-02-28T09:21:49.033Z,11.73
2023-02-28T09:24:21.430Z,13.35
2023-02-28T09:27:03.820Z,11.68
2023-02-28T09:29:36.842Z,12.77
2023-02-28T09:32:09.906Z,12.70
2023-02-28T09:34:42.368Z,12.57
2023-02-28T09:37:14.735Z,11.57
2023-02-28T09:39:47.162Z,12.70
2023-02-28T09:42:26.822Z,15.23
2023-02-28T09:45:01.491Z,12.50
2023-02-28T09:47:39.011Z,14.75
2023-02-28T09:50:20.314Z,12.48
2023-02-28T09:52:55.225Z,11.73
2023-02-28T09:55:35.230Z,15.40
2023-02-28T09:58:21.440Z,12.13
2023-02-28T10:01:04.024Z,14.48
2023-02-28T10:03:40.540Z,13.25
2023-02-28T10:06:17.676Z,14.13
2023-02-28T10:08:59.067Z,16.08
2023-02-28T10:11:35.029Z,13.27
2023-02-28T10:14:13.757Z,15.07
2023-02-28T10:16:52.248Z,13.70
2023-02-28T10:19:32.789Z,14.27
2023-02-28T10:22:13.346Z,11.95
2023-02-28T10:24:47.180Z,12.75
2023-02-28T10:27:22.077Z,13.88
2023-02-28T10:29:56.255Z,13.05
2023-02-28T10:32:31.982Z,15.10
2023-02-28T10:35:16.760Z,15.38
2023-02-28T10:37:51.414Z,13.95
2023-02-28T10:40:31.364Z,12.07
2023-02-28T10:43:05.854Z,13.00
2023-02-28T10:45:38.591Z,14.85
2023-02-28T10:48:30.178Z,14.80
2023-02-28T10:51:04.858Z,12.65
2023-02-28T10:54:00.005Z,15.38
2023-02-28T10:56:33.470Z,14.15
2023-02-28T10:59:28.660Z,13.35
2023-02-28T11:02:01.481Z,12.82
2023-02-28T11:04:36.896Z,12.00
2023-02-28T11:07:22.110Z,13.23
2023-02-28T11:09:57.782Z,13.23
2023-02-28T11:12:47.012Z,12.52
2023-02-28T11:15:26.913Z,9.90
2023-02-28T11:18:02.578Z,12.05
2023-02-28T11:20:35.439Z,11.10
2023-02-28T11:23:14.826Z,10.02
2023-02-28T11:25:51.398Z,7.53
2023-02-28T11:28:29.765Z,7.43
2023-02-28T11:31:05.770Z,7.22
2023-02-28T11:33:45.250Z,6.05
2023-02-28T11:36:21.375Z,7.30
2023-02-28T11:38:56.281Z,6.95
2023-02-28T11:41:46.892Z,7.35
2023-02-28T11:44:32.655Z,6.18
2023-02-28T11:47:11.833Z,6.72
2023-02-28T11:49:51.065Z,5.75
2023-02-28T11:52:34.381Z,7.97
2023-02-28T11:55:17.571Z,6.28
2023-02-28T11:58:10.192Z,5.78
2023-02-28T12:01:11.203Z,6.97
2023-02-28T12:03:59.201Z,6.07
2023-02-28T12:06:37.424Z,6.43
2023-02-28T12:09:28.629Z,7.47
2023-02-28T12:12:11.397Z,6.20
2023-02-28T12:15:04.714Z,6.78
2023-02-28T12:17:50.513Z,6.22
2023-02-28T12:20:30.337Z,5.63
2023-02-28T12:23:22.608Z,6.45
2023-02-28T12:26:03.290Z,5.43
2023-02-28T12:28:42.278Z,7.22
2023-02-28T12:31:19.284Z,6.70
2023-02-28T12:33:54.927Z,5.15
2023-02-28T12:36:28.901Z,5.65
2023-02-28T12:39:07.223Z,5.43
2023-02-28T12:41:45.524Z,5.90
2023-02-28T12:44:22.636Z,5.43
2023-02-28T12:47:00.428Z,6.45
2023-02-28T12:49:39.104Z,4.55
2023-02-28T12:52:16.828Z,5.53
2023-02-28T12:54:55.472Z,5.40
2023-02-28T12:57:37.438Z,4.57
2023-02-28T13:00:16.224Z,6.05
2023-02-28T13:03:07.141Z,5.35
2023-02-28T13:06:20.507Z,5.53
2023-02-28T13:09:05.706Z,5.47
2023-02-28T13:11:43.074Z,6.53
2023-02-28T13:14:26.480Z,5.72
2023-02-28T13:17:11.013Z,6.25
2023-02-28T13:19:46.039Z,5.18
2023-02-28T13:22:21.610Z,4.75
2023-02-28T13:24:54.893Z,6.90
2023-02-28T13:27:37.202Z,6.95
2023-02-28T13:30:47.058Z,5.85
2023-02-28T13:33:25.261Z,6.18
2023-02-28T13:36:23.747Z,5.53
2023-02-28T13:39:00.918Z,6.30
2023-02-28T13:41:47.321Z,5.63
2023-02-28T13:44:24.359Z,7.88
2023-02-28T13:47:28.813Z,5.60
2023-02-28T13:50:23.518Z,5.53
2023-02-28T13:53:16.379Z,5.93
2023-02-28T13:55:58.054Z,5.60
2023-02-28T13:58:43.827Z,5.43
2023-02-28T14:01:28.489Z,4.65
2023-02-28T14:04:26.263Z,4.95
2023-02-28T14:07:00.959Z,4.32
2023-02-28T14:09:36.229Z,4.35
2023-02-28T14:12:46.127Z,6.75
2023-02-28T14:15:47.093Z,5.07
2023-02-28T14:18:27.293Z,4.13
2023-02-28T14:21:10.223Z,5.72
2023-02-28T14:24:03.901Z,5.25
2023-02-28T14:27:01.647Z,4.43
2023-02-28T14:30:12.315Z,7.72
2023-02-28T14:32:52.098Z,4.50
2023-02-28T14:38:17.697Z,5.18
2023-02-28T14:40:53.887Z,5.10
2023-02-28T14:43:28.229Z,5.65
2023-02-28T14:46:02.567Z,5.40
2023-02-28T14:48:36.188Z,5.20
2023-02-28T14:51:09.942Z,5.22
2023-02-28T14:53:42.508Z,4.93
2023-02-28T14:56:22.892Z,4.30
2023-02-28T14:58:57.404Z,4.60
2023-02-28T15:01:30.814Z,4.38
2023-02-28T15:04:06.141Z,5.68
2023-02-28T15:06:38.571Z,4.47
2023-02-28T15:09:14.875Z,4.57
2023-02-28T15:11:50.616Z,7.18
2023-02-28T15:14:23.135Z,4.90
2023-02-28T15:17:00.881Z,4.60
2023-02-28T15:19:37.620Z,4.93
2023-02-28T15:22:17.204Z,4.97
2023-02-28T15:24:52.470Z,4.75
2023-02-28T15:27:28.600Z,4.65
2023-02-28T15:30:06.498Z,4.32
2023-02-28T15:32:40.361Z,4.63
2023-02-28T15:35:26.029Z,4.20
2023-02-28T15:38:01.498Z,5.07
2023-02-28T15:40:38.335Z,6.82
2023-02-28T15:43:17.092Z,6.22
2023-02-28T15:45:51.937Z,6.22
2023-02-28T15:48:27.698Z,4.88
2023-02-28T15:51:06.787Z,4.57
2023-02-28T15:53:48.773Z,5.47
2023-02-28T15:56:25.176Z,3.83
2023-02-28T15:59:01.004Z,5.63
2023-02-28T16:01:34.870Z,4.88
2023-02-28T16:04:14.805Z,4.50
2023-02-28T16:06:48.732Z,5.35
2023-02-28T16:09:21.183Z,4.82
2023-02-28T16:11:57.110Z,5.47
2023-02-28T16:14:31.114Z,7.05
2023-02-28T16:17:05.843Z,6.63
2023-02-28T16:19:38.177Z,4.93
2023-02-28T16:22:10.588Z,5.28
2023-02-28T16:24:43.145Z,5.78
2023-02-28T16:27:20.344Z,4.90
2023-02-28T16:29:54.211Z,6.80
2023-02-28T16:32:26.571Z,4.68
2023-02-28T16:34:59.059Z,5.13
2023-02-28T16:37:31.528Z,5.07
2023-02-28T16:40:04.297Z,4.90
2023-02-28T16:42:39.218Z,5.18
2023-02-28T16:45:19.512Z,5.43
2023-02-28T16:47:52.550Z,5.50
2023-02-28T16:50:28.049Z,4.53
2023-02-28T16:53:00.851Z,4.43
2023-02-28T16:55:34.930Z,5.47
2023-02-28T16:58:07.290Z,4.88
2023-02-28T17:00:40.404Z,4.30
2023-02-28T17:03:31.989Z,6.22
2023-02-28T17:06:05.978Z,4.95
2023-02-28T17:08:38.939Z,4.32
2023-02-28T17:11:11.356Z,4.85
2023-02-28T17:13:43.776Z,4.28
2023-02-28T17:16:23.847Z,4.85
2023-02-28T17:18:59.032Z,4.78
2023-02-28T17:21:31.958Z,4.75
2023-02-28T17:24:05.052Z,4.63
2023-02-28T17:26:37.442Z,4.63
2023-02-28T17:29:16.495Z,4.40
2023-02-28T17:31:49.610Z,3.90
2023-02-28T17:34:22.388Z,5.88
2023-02-28T17:36:54.719Z,4.05
2023-02-28T17:39:27.184Z,4.70
2023-02-28T17:41:59.546Z,3.35
2023-02-28T17:44:31.845Z,3.55
2023-02-28T17:47:04.950Z,3.80
2023-02-28T17:49:37.374Z,4.25
2023-02-28T17:52:09.805Z,4.88
2023-02-28T17:54:43.565Z,4.05
2023-02-28T17:57:16.355Z,4.15
2023-02-28T17:59:48.757Z,3.45
2023-02-28T18:02:21.774Z,3.42
2023-02-28T18:04:54.083Z,3.90
2023-02-28T18:07:26.386Z,7.05
2023-02-28T18:09:58.744Z,4.88
2023-02-28T18:12:31.605Z,4.75
2023-02-28T18:15:04.692Z,4.57
2023-02-28T18:17:37.688Z,5.05
2023-02-28T18:20:11.388Z,4.40
2023-02-28T18:22:43.718Z,5.97
2023-02-28T18:25:17.263Z,5.50
2023-02-28T18:27:57.686Z,5.50
2023-02-28T18:30:38.008Z,5.82
2023-02-28T18:33:10.973Z,5.95
2023-02-28T18:35:43.988Z,5.05
2023-02-28T18:38:19.179Z,5.10
2023-02-28T18:40:53.538Z,5.93
2023-02-28T18:43:25.942Z,5.85
2023-02-28T18:46:02.969Z,5.00
2023-02-28T18:48:36.105Z,5.72
2023-02-28T18:51:09.190Z,7.38
2023-02-28T18:53:42.647Z,5.60
2023-02-28T18:56:17.443Z,6.43
2023-02-28T18:58:50.150Z,6.43
2023-02-28T19:01:23.948Z,9.48
2023-02-28T19:03:58.175Z,7.55
2023-02-28T19:06:32.338Z,5.68
2023-02-28T19:09:05.529Z,7.22
2023-02-28T19:11:38.048Z,4.93
2023-02-28T19:14:10.329Z,5.10
2023-02-28T19:16:42.680Z,5.22
2023-02-28T19:19:15.646Z,6.10
2023-02-28T19:21:47.910Z,4.40
2023-02-28T19:24:20.482Z,4.90
2023-02-28T19:26:52.817Z,5.00
2023-02-28T19:29:25.159Z,6.32
2023-02-28T19:31:58.099Z,4.35
2023-02-28T19:34:31.361Z,6.78
2023-02-28T19:37:03.656Z,4.38
2023-02-28T19:39:40.619Z,4.03
2023-02-28T19:42:15.043Z,5.05
2023-02-28T19:44:47.375Z,3.67
2023-02-28T19:47:19.714Z,4.47
2023-02-28T19:49:53.997Z,5.53
2023-02-28T19:52:26.350Z,5.55
2023-02-28T19:54:58.851Z,3.60
2023-02-28T19:57:31.220Z,4.05
2023-02-28T20:00:04.615Z,5.82
2023-02-28T20:02:44.844Z,4.90
2023-02-28T20:05:18.209Z,3.55
2023-02-28T20:07:50.591Z,4.90
2023-02-28T20:10:23.112Z,5.55
2023-02-28T20:12:55.623Z,4.18
2023-02-28T20:15:28.353Z,4.03
2023-02-28T20:18:00.815Z,4.03
2023-02-28T20:20:36.760Z,3.53
2023-02-28T20:23:09.163Z,4.28
2023-02-28T20:25:41.886Z,4.78
2023-02-28T20:28:14.311Z,3.72
2023-02-28T20:30:48.084Z,4.65
2023-02-28T20:33:20.414Z,3.85
2023-02-28T20:35:59.205Z,4.65
2023-02-28T20:38:31.648Z,4.37
2023-02-28T20:41:05.129Z,3.92
2023-02-28T20:43:37.423Z,3.65
2023-02-28T20:46:10.102Z,4.93
2023-02-28T20:48:42.433Z,5.45
2023-02-28T20:51:15.891Z,5.13
2023-02-28T20:53:48.380Z,5.07
2023-02-28T20:56:22.993Z,5.15
2023-02-28T20:58:56.824Z,7.18
2023-02-28T21:01:30.781Z,5.50
2023-02-28T21:04:05.633Z,4.78
2023-02-28T21:06:42.285Z,3.85
2023-02-28T21:09:15.596Z,5.10
2023-02-28T21:11:48.764Z,4.15
2023-02-28T21:14:21.198Z,7.03
2023-02-28T21:16:53.553Z,5.68
2023-02-28T21:19:26.109Z,4.15
2023-02-28T21:21:59.047Z,3.38
2023-02-28T21:24:31.940Z,4.25
2023-02-28T21:27:04.325Z,3.42
2023-02-28T21:29:36.921Z,4.25
2023-02-28T21:32:09.312Z,4.15
2023-02-28T21:34:41.823Z,3.97
2023-02-28T21:37:14.796Z,2.95
2023-02-28T21:39:47.062Z,4.20
2023-02-28T21:42:19.397Z,4.30
2023-02-28T21:44:51.682Z,2.92
2023-02-28T21:47:24.011Z,2.75
2023-02-28T21:49:56.296Z,3.25
2023-02-28T21:52:29.233Z,3.33
2023-02-28T21:55:01.892Z,3.33
2023-02-28T21:57:35.254Z,3.40
2023-02-28T22:00:11.261Z,3.15
2023-02-28T22:02:46.389Z,3.10
2023-02-28T22:05:18.723Z,2.90
2023-02-28T22:07:51.650Z,3.28
2023-02-28T22:10:24.581Z,2.95
2023-02-28T22:13:01.048Z,3.70
2023-02-28T22:15:36.465Z,2.85
2023-02-28T22:18:08.825Z,2.63
2023-02-28T22:20:41.079Z,2.72
2023-02-28T22:23:14.062Z,3.53
2023-02-28T22:25:46.354Z,3.70
2023-02-28T22:28:18.652Z,2.50
2023-02-28T22:30:50.951Z,2.45
2023-02-28T22:33:23.818Z,2.25
2023-02-28T22:35:56.222Z,2.97
2023-02-28T22:38:29.266Z,3.10
2023-02-28T22:41:02.498Z,3.55
2023-02-28T22:43:34.868Z,3.75
2023-02-28T22:46:08.969Z,2.63
2023-02-28T22:48:41.326Z,2.53
2023-02-28T22:51:15.707Z,2.33
2023-02-28T22:53:49.873Z,2.63
2023-02-28T22:56:23.893Z,2.13
2023-02-28T22:58:58.434Z,3.45
2023-02-28T23:01:33.216Z,2.08
2023-02-28T23:04:06.615Z,3.20
2023-02-28T23:06:41.714Z,1.52
2023-02-28T23:09:17.378Z,2.05
2023-02-28T23:11:50.896Z,1.98
2023-02-28T23:14:23.248Z,2.72
2023-02-28T23:16:55.669Z,2.55
2023-02-28T23:19:30.288Z,2.65
2023-02-28T23:22:04.809Z,2.63
2023-02-28T23:24:38.756Z,2.67
2023-02-28T23:27:11.056Z,1.70
2023-02-28T23:29:43.367Z,3.58
2023-02-28T23:32:15.799Z,3.75
2023-02-28T23:34:48.245Z,4.70
2023-02-28T23:37:20.620Z,3.85
2023-02-28T23:39:53.768Z,3.92
2023-02-28T23:42:26.316Z,5.82
2023-02-28T23:44:58.616Z,4.28
2023-02-28T23:47:31.786Z,6.35
2023-02-28T23:50:04.888Z,4.07
2023-02-28T23:52:37.207Z,3.33
2023-02-28T23:55:11.068Z,4.95
2023-02-28T23:57:43.502Z,3.70
